createdAt,value
2022-08-30T00:02:02.280Z,19.48
2022-08-30T00:04:29.603Z,19.62
2022-08-30T00:06:57.001Z,19.60
2022-08-30T00:09:24.496Z,19.56
2022-08-30T00:11:52.350Z,19.49
2022-08-30T00:14:20.638Z,19.44
2022-08-30T00:16:48.001Z,19.37
2022-08-30T00:19:15.412Z,19.55
2022-08-30T00:21:42.833Z,19.41
2022-08-30T00:24:10.318Z,19.56
2022-08-30T00:26:37.715Z,19.46
2022-08-30T00:29:05.067Z,19.46
2022-08-30T00:31:32.550Z,19.37
2022-08-30T00:34:00.011Z,19.28
2022-08-30T00:36:27.958Z,19.28
2022-08-30T00:38:55.394Z,19.22
2022-08-30T00:41:23.040Z,19.28
2022-08-30T00:43:50.501Z,19.33
2022-08-30T00:46:17.969Z,19.27
2022-08-30T00:48:48.273Z,19.28
2022-08-30T00:51:17.507Z,19.34
2022-08-30T00:53:48.556Z,19.39
2022-08-30T00:56:16.538Z,19.23
2022-08-30T00:58:49.072Z,19.24
2022-08-30T01:01:16.967Z,19.07
2022-08-30T01:03:45.608Z,19.09
2022-08-30T01:06:15.900Z,19.03
2022-08-30T01:08:45.479Z,19.02
2022-08-30T01:11:15.709Z,18.96
2022-08-30T01:13:47.525Z,19.01
2022-08-30T01:16:15.904Z,19.01
2022-08-30T01:18:45.954Z,19.00
2022-08-30T01:21:34.313Z,19.00
2022-08-30T01:24:02.487Z,18.93
2022-08-30T01:26:31.013Z,18.96
2022-08-30T01:29:02.845Z,18.90
2022-08-30T01:31:30.283Z,18.80
2022-08-30T01:33:57.674Z,18.78
2022-08-30T01:36:25.476Z,18.90
2022-08-30T01:38:58.531Z,18.95
2022-08-30T01:41:32.854Z,19.07
2022-08-30T01:44:02.966Z,19.06
2022-08-30T01:46:36.880Z,19.04
2022-08-30T01:49:10.340Z,19.05
2022-08-30T01:51:38.617Z,19.04
2022-08-30T01:54:06.487Z,19.05
2022-08-30T01:56:34.125Z,19.00
2022-08-30T01:59:03.028Z,19.04
2022-08-30T02:01:35.967Z,19.05
2022-08-30T02:04:04.698Z,19.00
2022-08-30T02:06:32.464Z,19.07
2022-08-30T02:09:00.366Z,19.05
2022-08-30T02:11:27.893Z,19.09
2022-08-30T02:13:55.277Z,19.16
2022-08-30T02:16:25.040Z,19.08
2022-08-30T02:18:55.359Z,19.08
2022-08-30T02:21:23.260Z,19.14
2022-08-30T02:23:51.299Z,19.11
2022-08-30T02:26:19.125Z,19.19
2022-08-30T02:28:49.980Z,19.16
2022-08-30T02:31:21.015Z,18.88
2022-08-30T02:33:50.911Z,19.23
2022-08-30T02:36:20.950Z,19.08
2022-08-30T02:38:50.041Z,19.32
2022-08-30T02:41:18.552Z,19.35
2022-08-30T02:43:46.089Z,19.21
2022-08-30T02:46:14.911Z,19.44
2022-08-30T02:48:42.874Z,19.44
2022-08-30T02:51:13.788Z,19.45
2022-08-30T02:53:43.995Z,19.47
2022-08-30T02:56:13.047Z,19.44
2022-08-30T02:58:42.718Z,19.54
2022-08-30T03:01:12.656Z,19.54
2022-08-30T03:04:39.471Z,-144.19
2022-08-30T03:07:08.762Z,19.65
2022-08-30T03:09:37.146Z,19.66
2022-08-30T03:12:07.306Z,19.60
2022-08-30T03:14:37.814Z,19.68
2022-08-30T03:17:11.231Z,19.64
2022-08-30T03:19:44.423Z,19.69
2022-08-30T03:22:12.492Z,19.61
2022-08-30T03:24:40.621Z,19.66
2022-08-30T03:27:08.494Z,19.45
2022-08-30T03:29:35.917Z,19.62
2022-08-30T03:32:03.984Z,19.69
2022-08-30T03:34:31.725Z,19.66
2022-08-30T03:37:01.541Z,19.66
2022-08-30T03:39:28.904Z,19.71
2022-08-30T03:41:56.228Z,19.68
2022-08-30T03:44:23.838Z,19.71
2022-08-30T03:46:51.310Z,19.74
2022-08-30T03:49:19.215Z,19.69
2022-08-30T03:51:47.629Z,19.75
2022-08-30T03:54:15.483Z,19.81
2022-08-30T03:56:42.939Z,19.56
2022-08-30T03:59:10.478Z,19.75
2022-08-30T04:01:37.947Z,19.79
2022-08-30T04:04:05.531Z,19.79
2022-08-30T04:06:33.577Z,19.74
2022-08-30T04:09:01.038Z,19.66
2022-08-30T04:11:28.541Z,19.69
2022-08-30T04:13:57.806Z,19.68
2022-08-30T04:16:26.726Z,19.60
2022-08-30T04:18:54.145Z,19.65
2022-08-30T04:21:21.547Z,19.63
2022-08-30T04:23:48.904Z,19.70
2022-08-30T04:26:16.279Z,19.71
2022-08-30T04:28:44.448Z,19.69
2022-08-30T04:31:16.697Z,19.67
2022-08-30T04:33:46.286Z,19.65
2022-08-30T04:36:15.522Z,19.76
2022-08-30T04:38:43.433Z,19.72
2022-08-30T04:41:17.545Z,19.68
2022-08-30T04:43:46.481Z,19.73
2022-08-30T04:46:14.386Z,19.69
2022-08-30T04:48:41.883Z,19.62
2022-08-30T04:51:14.436Z,19.68
2022-08-30T04:53:43.053Z,19.75
2022-08-30T04:56:16.585Z,19.79
2022-08-30T04:58:45.696Z,19.81
2022-08-30T05:01:44.786Z,19.76
2022-08-30T05:04:14.658Z,19.83
2022-08-30T05:06:42.508Z,19.86
2022-08-30T05:09:09.923Z,19.76
2022-08-30T05:11:39.085Z,19.91
2022-08-30T05:14:06.645Z,19.86
2022-08-30T05:16:34.100Z,19.81
2022-08-30T05:19:02.743Z,19.91
2022-08-30T05:21:30.129Z,19.94
2022-08-30T05:24:00.456Z,20.00
2022-08-30T05:26:30.950Z,20.01
2022-08-30T05:28:59.830Z,20.05
2022-08-30T05:31:33.048Z,20.25
2022-08-30T05:34:00.923Z,20.22
2022-08-30T05:36:30.391Z,20.66
2022-08-30T05:38:58.607Z,20.95
2022-08-30T05:41:27.299Z,20.81
2022-08-30T05:44:01.675Z,21.16
2022-08-30T05:49:07.709Z,21.67
2022-08-30T05:51:43.423Z,21.75
2022-08-30T05:54:12.880Z,21.81
2022-08-30T05:56:41.731Z,21.80
2022-08-30T05:59:09.829Z,21.77
2022-08-30T06:01:42.952Z,21.74
2022-08-30T06:04:12.178Z,21.90
2022-08-30T06:06:41.466Z,21.43
2022-08-30T06:09:10.463Z,21.39
2022-08-30T06:11:38.091Z,21.32
2022-08-30T06:14:06.626Z,21.46
2022-08-30T06:16:35.876Z,21.53
2022-08-30T06:19:03.371Z,21.62
2022-08-30T06:21:37.167Z,21.72
2022-08-30T06:24:06.968Z,21.86
2022-08-30T06:26:41.480Z,22.08
2022-08-30T06:29:10.550Z,22.27
2022-08-30T06:31:38.636Z,22.81
2022-08-30T06:34:06.320Z,22.72
2022-08-30T06:36:34.492Z,22.88
2022-08-30T06:39:02.540Z,22.99
2022-08-30T06:41:35.086Z,23.41
2022-08-30T06:44:05.271Z,23.65
2022-08-30T06:46:35.738Z,23.90
2022-08-30T06:49:05.641Z,23.51
2022-08-30T06:51:36.921Z,23.82
2022-08-30T06:54:06.964Z,24.07
2022-08-30T06:56:40.204Z,24.13
2022-08-30T06:59:09.984Z,24.44
2022-08-30T07:01:37.300Z,24.42
2022-08-30T07:04:05.935Z,24.28
2022-08-30T07:06:35.076Z,24.71
2022-08-30T07:09:02.838Z,25.27
2022-08-30T07:11:37.164Z,25.52
2022-08-30T07:14:05.861Z,25.49
2022-08-30T07:16:34.134Z,25.77
2022-08-30T07:19:05.271Z,25.87
2022-08-30T07:21:39.026Z,26.16
2022-08-30T07:24:08.840Z,26.47
2022-08-30T07:26:42.142Z,26.32
2022-08-30T07:29:10.690Z,26.58
2022-08-30T07:31:38.162Z,26.76
2022-08-30T07:34:07.433Z,26.84
2022-08-30T07:36:36.303Z,26.84
2022-08-30T07:39:06.021Z,26.60
2022-08-30T07:41:36.637Z,26.58
2022-08-30T07:44:04.640Z,26.81
2022-08-30T07:46:32.129Z,27.01
2022-08-30T07:49:01.783Z,27.24
2022-08-30T07:51:32.362Z,27.13
2022-08-30T07:54:00.797Z,27.02
2022-08-30T07:56:28.171Z,27.43
2022-08-30T07:58:56.651Z,27.40
2022-08-30T08:01:30.813Z,27.39
2022-08-30T08:04:03.422Z,27.84
2022-08-30T08:06:34.598Z,28.11
2022-08-30T08:09:02.828Z,28.07
2022-08-30T08:11:33.734Z,28.07
2022-08-30T08:14:02.421Z,27.94
2022-08-30T08:16:32.510Z,27.39
2022-08-30T08:19:00.207Z,27.45
2022-08-30T08:21:27.671Z,27.77
2022-08-30T08:23:55.143Z,28.10
2022-08-30T08:26:22.898Z,28.38
2022-08-30T08:28:50.287Z,28.53
2022-08-30T08:31:20.306Z,28.49
2022-08-30T08:33:48.026Z,28.23
2022-08-30T08:36:15.893Z,28.22
2022-08-30T08:38:43.276Z,28.30
2022-08-30T08:41:42.865Z,28.40
2022-08-30T08:47:23.833Z,28.87
2022-08-30T08:49:56.327Z,28.54
2022-08-30T08:52:51.364Z,29.10
2022-08-30T08:55:22.527Z,29.55
2022-08-30T08:57:50.253Z,29.32
2022-08-30T09:00:17.644Z,28.86
2022-08-30T09:02:51.677Z,29.08
2022-08-30T09:05:29.071Z,28.66
2022-08-30T09:08:09.156Z,28.83
2022-08-30T09:10:50.441Z,28.86
2022-08-30T09:13:19.731Z,28.57
2022-08-30T09:15:55.036Z,29.37
2022-08-30T09:18:54.644Z,29.78
2022-08-30T09:21:28.025Z,29.50
2022-08-30T09:24:01.673Z,29.34
2022-08-30T09:26:37.868Z,29.43
2022-08-30T09:29:17.498Z,29.70
2022-08-30T09:31:52.948Z,29.83
2022-08-30T09:34:35.882Z,29.93
2022-08-30T09:37:03.294Z,29.23
2022-08-30T09:39:35.593Z,29.61
2022-08-30T09:42:24.070Z,29.83
2022-08-30T09:44:53.118Z,29.64
2022-08-30T09:47:31.450Z,29.78
2022-08-30T09:50:13.770Z,29.87
2022-08-30T09:53:12.032Z,29.63
2022-08-30T09:56:00.614Z,29.52
2022-08-30T09:58:38.219Z,29.78
2022-08-30T10:01:20.673Z,29.98
2022-08-30T10:03:56.290Z,29.84
2022-08-30T10:06:50.259Z,30.36
2022-08-30T10:09:36.695Z,29.99
2022-08-30T10:12:15.744Z,30.55
2022-08-30T10:14:45.850Z,30.08
2022-08-30T10:17:35.157Z,29.82
2022-08-30T10:20:23.814Z,29.67
2022-08-30T10:23:20.108Z,30.08
2022-08-30T10:26:12.174Z,30.26
2022-08-30T10:28:52.360Z,30.01
2022-08-30T10:31:53.689Z,30.18
2022-08-30T10:34:36.166Z,30.03
2022-08-30T10:37:25.312Z,30.51
2022-08-30T10:39:59.312Z,30.57
2022-08-30T10:42:39.363Z,30.82
2022-08-30T10:45:15.269Z,30.98
2022-08-30T10:47:50.409Z,31.05
2022-08-30T10:50:24.762Z,31.13
2022-08-30T10:52:59.756Z,30.54
2022-08-30T10:55:36.843Z,30.96
2022-08-30T10:58:06.855Z,31.80
2022-08-30T11:00:47.652Z,31.94
2022-08-30T11:03:18.908Z,31.43
2022-08-30T11:06:37.764Z,31.06
2022-08-30T11:09:32.038Z,31.65
2022-08-30T11:12:47.413Z,31.12
2022-08-30T11:15:21.450Z,31.28
2022-08-30T11:18:13.168Z,31.78
2022-08-30T11:20:53.689Z,31.50
2022-08-30T11:23:36.380Z,31.83
2022-08-30T11:26:13.986Z,31.89
2022-08-30T11:28:48.019Z,32.04
2022-08-30T11:31:21.070Z,32.18
2022-08-30T11:34:01.016Z,32.23
2022-08-30T11:36:37.711Z,31.93
2022-08-30T11:39:11.818Z,31.68
2022-08-30T11:41:47.928Z,31.91
2022-08-30T11:44:21.942Z,31.78
2022-08-30T11:46:51.352Z,32.17
2022-08-30T11:49:18.499Z,32.68
2022-08-30T11:52:27.211Z,33.78
2022-08-30T11:55:06.902Z,32.87
2022-08-30T11:58:02.230Z,32.86
2022-08-30T12:00:42.081Z,32.23
2022-08-30T12:03:15.466Z,32.37
2022-08-30T12:05:47.977Z,32.66
2022-08-30T12:08:24.321Z,32.32
2022-08-30T12:10:59.777Z,31.48
2022-08-30T12:13:35.649Z,31.39
2022-08-30T12:16:21.475Z,31.70
2022-08-30T12:19:00.485Z,31.24
2022-08-30T12:21:43.672Z,31.49
2022-08-30T12:24:40.436Z,32.42
2022-08-30T12:27:25.189Z,32.35
2022-08-30T12:30:07.247Z,32.10
2022-08-30T12:32:47.588Z,31.96
2022-08-30T12:35:23.562Z,32.77
2022-08-30T12:38:03.549Z,31.98
2022-08-30T12:40:31.895Z,31.48
2022-08-30T12:43:07.756Z,31.79
2022-08-30T12:45:44.257Z,32.61
2022-08-30T12:48:19.865Z,32.31
2022-08-30T12:50:54.105Z,32.20
2022-08-30T12:53:26.787Z,32.62
2022-08-30T12:56:06.024Z,32.91
2022-08-30T12:58:43.990Z,32.14
2022-08-30T13:01:31.361Z,31.87
2022-08-30T13:04:22.323Z,32.16
2022-08-30T13:06:52.455Z,32.21
2022-08-30T13:09:34.825Z,32.83
2022-08-30T13:12:04.887Z,32.24
2022-08-30T13:14:33.987Z,33.31
2022-08-30T13:17:08.938Z,32.96
2022-08-30T13:19:44.023Z,32.67
2022-08-30T13:22:35.133Z,33.49
2022-08-30T13:25:04.185Z,33.37
2022-08-30T13:27:31.508Z,33.21
2022-08-30T13:30:18.740Z,33.05
2022-08-30T13:32:46.031Z,32.54
2022-08-30T13:35:13.506Z,32.23
2022-08-30T13:37:47.631Z,32.56
2022-08-30T13:40:19.603Z,32.44
2022-08-30T13:42:47.051Z,31.92
2022-08-30T13:48:04.229Z,32.76
2022-08-30T13:50:33.007Z,32.33
2022-08-30T13:53:00.280Z,32.25
2022-08-30T13:55:28.174Z,31.72
2022-08-30T13:57:56.661Z,31.72
2022-08-30T14:00:26.947Z,31.57
2022-08-30T14:02:57.711Z,31.57
2022-08-30T14:05:49.224Z,32.09
2022-08-30T14:11:12.287Z,31.81
2022-08-30T14:14:14.649Z,32.15
2022-08-30T14:16:28.808Z,31.19
2022-08-30T14:18:59.240Z,31.53
2022-08-30T14:21:27.006Z,31.17
2022-08-30T14:23:56.665Z,31.10
2022-08-30T14:26:32.231Z,31.53
2022-08-30T14:29:00.852Z,31.01
2022-08-30T14:31:30.211Z,31.00
2022-08-30T14:34:04.270Z,30.33
2022-08-30T14:36:34.744Z,30.58
2022-08-30T14:39:08.402Z,30.09
2022-08-30T14:41:43.597Z,29.41
2022-08-30T14:44:13.375Z,29.30
2022-08-30T14:46:42.079Z,29.10
2022-08-30T14:49:11.223Z,28.92
2022-08-30T14:51:39.018Z,28.73
2022-08-30T14:54:06.594Z,28.54
2022-08-30T14:56:36.765Z,28.47
2022-08-30T14:59:04.033Z,28.50
2022-08-30T15:01:33.311Z,28.18
2022-08-30T15:04:06.295Z,28.00
2022-08-30T15:06:37.183Z,27.97
2022-08-30T15:09:07.163Z,27.78
2022-08-30T15:11:35.604Z,27.75
2022-08-30T15:14:04.749Z,27.34
2022-08-30T15:16:35.766Z,27.36
2022-08-30T15:19:04.318Z,27.62
2022-08-30T15:21:43.778Z,27.39
2022-08-30T15:24:17.098Z,28.01
2022-08-30T15:26:44.608Z,28.45
2022-08-30T15:29:14.353Z,29.70
2022-08-30T15:31:42.631Z,29.09
2022-08-30T15:34:13.249Z,29.39
2022-08-30T15:36:41.782Z,28.30
2022-08-30T15:39:10.000Z,28.45
2022-08-30T15:41:39.923Z,28.18
2022-08-30T15:44:12.217Z,27.47
2022-08-30T15:46:46.846Z,27.86
2022-08-30T15:49:24.890Z,27.76
2022-08-30T15:51:54.382Z,27.62
2022-08-30T15:54:24.113Z,27.03
2022-08-30T15:56:59.390Z,27.13
2022-08-30T15:59:29.025Z,27.04
2022-08-30T16:01:59.328Z,27.06
2022-08-30T16:04:26.882Z,26.96
2022-08-30T16:06:55.084Z,26.95
2022-08-30T16:09:23.874Z,26.89
2022-08-30T16:11:51.355Z,27.07
2022-08-30T16:14:18.890Z,26.97
2022-08-30T16:16:46.756Z,27.38
2022-08-30T16:19:14.265Z,26.68
2022-08-30T16:21:43.670Z,26.51
2022-08-30T16:24:13.842Z,26.42
2022-08-30T16:26:43.605Z,26.73
2022-08-30T16:29:12.656Z,26.48
2022-08-30T16:31:41.688Z,26.29
2022-08-30T16:34:10.023Z,26.24
2022-08-30T16:36:37.418Z,26.15
2022-08-30T16:39:08.449Z,26.42
2022-08-30T16:41:38.914Z,26.38
2022-08-30T16:44:06.923Z,26.23
2022-08-30T16:46:36.599Z,26.51
2022-08-30T16:49:05.564Z,26.45
2022-08-30T16:51:37.136Z,25.75
2022-08-30T16:54:07.648Z,25.60
2022-08-30T16:56:36.588Z,25.73
2022-08-30T16:59:10.908Z,26.01
2022-08-30T17:01:39.430Z,26.20
2022-08-30T17:04:08.376Z,26.14
2022-08-30T17:06:36.226Z,25.61
2022-08-30T17:09:06.415Z,25.47
2022-08-30T17:11:36.678Z,25.61
2022-08-30T17:14:05.429Z,25.90
2022-08-30T17:16:36.899Z,25.99
2022-08-30T17:19:05.427Z,25.59
2022-08-30T17:21:34.673Z,25.66
2022-08-30T17:24:03.032Z,25.38
2022-08-30T17:26:37.270Z,25.86
2022-08-30T17:29:05.900Z,25.44
2022-08-30T17:31:36.116Z,25.26
2022-08-30T17:34:06.005Z,25.15
2022-08-30T17:36:36.467Z,25.07
2022-08-30T17:39:11.844Z,24.97
2022-08-30T17:41:50.184Z,24.93
2022-08-30T17:45:18.997Z,-144.19
2022-08-30T17:48:45.879Z,-144.19
2022-08-30T17:52:12.980Z,-144.19
2022-08-30T17:55:39.437Z,-144.19
2022-08-30T17:59:11.286Z,-144.19
2022-08-30T18:02:37.521Z,-144.19
2022-08-30T18:06:04.486Z,-144.19
2022-08-30T18:09:34.051Z,-144.19
2022-08-30T18:13:00.261Z,-144.19
2022-08-30T18:16:26.426Z,-144.19
2022-08-30T18:19:53.870Z,-144.19
2022-08-30T18:23:24.160Z,-144.19
2022-08-30T18:26:57.667Z,-144.19
2022-08-30T18:30:23.798Z,-144.19
2022-08-30T18:33:54.910Z,-144.19
2022-08-30T18:37:20.706Z,-144.19
2022-08-30T18:40:57.567Z,-144.19
2022-08-30T18:44:28.270Z,-144.19
2022-08-30T18:47:57.052Z,-144.19
2022-08-30T18:51:23.020Z,-144.19
2022-08-30T18:54:52.871Z,-144.19
2022-08-30T18:58:19.757Z,-144.19
2022-08-30T19:00:47.888Z,24.93
2022-08-30T19:04:29.539Z,-144.19
2022-08-30T19:08:01.180Z,-144.19
2022-08-30T19:11:27.193Z,-144.19
2022-08-30T19:14:53.222Z,-144.19
2022-08-30T19:18:19.969Z,-144.19
2022-08-30T19:21:46.169Z,-144.19
2022-08-30T19:25:12.391Z,-144.19
2022-08-30T19:28:38.481Z,-144.19
2022-08-30T19:32:04.660Z,-144.19
2022-08-30T19:35:31.120Z,-144.19
2022-08-30T19:38:57.237Z,-144.19
2022-08-30T19:42:23.230Z,-144.19
2022-08-30T19:45:53.780Z,-144.19
2022-08-30T19:49:19.613Z,-144.19
2022-08-30T19:52:53.305Z,-144.19
2022-08-30T19:56:21.081Z,-144.19
2022-08-30T19:59:48.408Z,-144.19
2022-08-30T20:03:14.339Z,-144.19
2022-08-30T20:06:43.143Z,-144.19
2022-08-30T20:10:11.254Z,-144.19
2022-08-30T20:13:37.835Z,-144.19
2022-08-30T20:17:03.806Z,-144.19
2022-08-30T20:20:29.859Z,-144.19
2022-08-30T20:23:55.803Z,-144.19
2022-08-30T20:27:21.692Z,-144.19
2022-08-30T20:30:48.259Z,-144.19
2022-08-30T20:34:14.037Z,-144.19
2022-08-30T20:37:40.606Z,-144.19
2022-08-30T20:41:11.449Z,-144.19
2022-08-30T20:44:39.033Z,-144.19
2022-08-30T20:48:05.928Z,-144.19
2022-08-30T20:51:34.865Z,-144.19
2022-08-30T20:55:02.147Z,-144.19
2022-08-30T20:58:28.384Z,-144.19
2022-08-30T21:01:54.969Z,-144.19
2022-08-30T21:05:22.339Z,-144.19
2022-08-30T21:08:48.124Z,-144.19
2022-08-30T21:12:15.455Z,-144.19
2022-08-30T21:15:46.070Z,-144.19
2022-08-30T21:19:12.706Z,-144.19
2022-08-30T21:22:38.790Z,-144.19
2022-08-30T21:26:06.255Z,-144.19
2022-08-30T21:29:31.839Z,-144.19
2022-08-30T21:33:00.299Z,-144.19
2022-08-30T21:36:45.775Z,-144.19
2022-08-30T21:40:17.360Z,-144.19
2022-08-30T21:43:43.406Z,-144.19
2022-08-30T21:47:11.425Z,-144.19
2022-08-30T21:50:41.285Z,-144.19
2022-08-30T21:54:11.311Z,-144.19
2022-08-30T21:57:38.533Z,-144.19
2022-08-30T22:01:08.563Z,-144.19
2022-08-30T22:04:34.631Z,-144.19
2022-08-30T22:08:00.730Z,-144.19
2022-08-30T22:11:28.227Z,-144.19
2022-08-30T22:14:54.820Z,-144.19
2022-08-30T22:18:20.556Z,-144.19
2022-08-30T22:20:47.945Z,22.24
2022-08-30T22:23:19.120Z,22.35
2022-08-30T22:25:47.080Z,22.30
2022-08-30T22:28:15.374Z,22.27
2022-08-30T22:30:44.879Z,22.31
2022-08-30T22:33:12.257Z,22.23
2022-08-30T22:35:39.660Z,22.14
2022-08-30T22:38:11.004Z,22.29
2022-08-30T22:40:48.657Z,22.27
2022-08-30T22:43:31.181Z,22.10
2022-08-30T22:45:59.437Z,22.10
2022-08-30T22:48:33.091Z,22.11
2022-08-30T22:51:02.611Z,22.11
2022-08-30T22:53:30.299Z,22.06
2022-08-30T22:55:59.574Z,21.92
2022-08-30T22:58:27.991Z,21.88
2022-08-30T23:00:55.621Z,21.97
2022-08-30T23:03:23.016Z,21.97
2022-08-30T23:05:50.321Z,22.15
2022-08-30T23:08:18.476Z,22.26
2022-08-30T23:10:45.950Z,22.18
2022-08-30T23:13:13.102Z,22.06
2022-08-30T23:15:40.556Z,21.97
2022-08-30T23:18:08.114Z,22.02
2022-08-30T23:20:35.381Z,22.11
2022-08-30T23:23:03.850Z,22.11
2022-08-30T23:25:52.020Z,22.20
2022-08-30T23:28:39.820Z,22.36
2022-08-30T23:31:36.258Z,22.42
2022-08-30T23:34:21.991Z,22.36
2022-08-30T23:37:07.693Z,22.35
2022-08-30T23:39:53.337Z,22.29
2022-08-30T23:42:38.995Z,22.41
2022-08-30T23:45:25.463Z,22.47
2022-08-30T23:48:11.097Z,22.30
2022-08-30T23:50:56.766Z,22.40
2022-08-30T23:53:43.817Z,22.32
2022-08-30T23:56:31.463Z,22.19
2022-08-30T23:59:17.191Z,22.14
